Time;durP1;ratioP1;P1;durP2;ratioP2;P2;SDS_P1;SDS_P2;PMS_P1;PMS_P2;Temp;Humidity;BMP_temperature;BMP_pressure;BME280_temperature;BME280_humidity;BME280_pressure;Samples;Min_cycle;Max_cycle;Signal;HPM_P1;HPM_P2
2023/06/13 00:00:06;;;;;;;7.17;2.40;;;;;;;20.17;50.61;99894.59;5052280;28;20447;-50
2023/06/13 00:02:33;;;;;;;3.27;2.60;;;;;;;20.18;50.59;99903.56;5049474;28;20529;-49
2023/06/13 00:05:03;;;;;;;2.63;2.27;;;;;;;20.01;51.10;99899.38;5045340;28;20573;-49
2023/06/13 00:07:32;;;;;;;2.47;2.37;;;;;;;20.06;50.85;99906.19;5039588;28;20450;-50
2023/06/13 00:09:59;;;;;;;4.50;2.17;;;;;;;19.95;51.25;99905.25;5052410;28;20451;-49
2023/06/13 00:12:26;;;;;;;2.07;1.97;;;;;;;19.93;51.35;99904.50;5052054;28;20484;-50
2023/06/13 00:14:53;;;;;;;2.77;2.37;;;;;;;19.89;51.41;99898.47;5051874;28;20820;-50
2023/06/13 00:17:22;;;;;;;1.80;1.70;;;;;;;19.78;52.07;99907.34;5052388;28;20554;-50
2023/06/13 00:19:49;;;;;;;2.87;2.67;;;;;;;19.90;52.01;99905.59;5052157;28;20512;-49
2023/06/13 00:22:15;;;;;;;3.90;2.30;;;;;;;19.82;52.21;99913.38;5051981;28;20470;-50
2023/06/13 00:24:42;;;;;;;2.40;2.20;;;;;;;19.74;52.44;99907.69;5051838;28;20490;-50
2023/06/13 00:27:08;;;;;;;1.77;1.67;;;;;;;19.74;52.34;99910.41;5052032;28;20529;-50
2023/06/13 00:29:35;;;;;;;2.47;2.27;;;;;;;19.66;53.05;99915.47;5051938;28;20530;-50
2023/06/13 00:32:01;;;;;;;3.73;2.30;;;;;;;19.60;53.26;99914.09;5052295;28;20473;-50
2023/06/13 00:34:28;;;;;;;2.80;2.03;;;;;;;19.81;52.40;99912.53;5052500;28;20932;-50
2023/06/13 00:36:55;;;;;;;3.73;2.40;;;;;;;19.79;52.65;99917.16;5056210;28;20909;-50
2023/06/13 00:39:22;;;;;;;2.60;1.60;;;;;;;19.82;52.83;99916.06;5055929;28;20457;-50
2023/06/13 00:41:48;;;;;;;3.43;2.63;;;;;;;19.65;54.01;99911.06;5055782;28;20450;-50
2023/06/13 00:44:15;;;;;;;3.80;2.40;;;;;;;19.79;53.93;99910.91;5056618;28;20792;-48
2023/06/13 00:46:43;;;;;;;6.67;3.17;;;;;;;19.66;54.38;99915.47;5055908;28;20455;-48
2023/06/13 00:49:09;;;;;;;3.73;2.30;;;;;;;19.60;56.02;99921.28;5055845;28;20817;-48
2023/06/13 00:51:40;;;;;;;2.70;2.50;;;;;;;19.17;57.69;99922.47;5055930;28;20537;-49
2023/06/13 00:54:08;;;;;;;3.03;2.80;;;;;;;18.76;60.09;99917.25;5055942;28;20478;-49
2023/06/13 00:56:36;;;;;;;9.90;2.80;;;;;;;18.76;60.54;99922.63;5055683;28;20525;-48
2023/06/13 00:59:03;;;;;;;6.43;2.53;;;;;;;18.69;60.55;99912.41;5055800;28;20462;-49
2023/06/13 01:01:30;;;;;;;9.27;2.83;;;;;;;18.40;61.71;99912.50;5056072;28;20542;-49
2023/06/13 01:03:59;;;;;;;4.07;2.40;;;;;;;18.21;62.29;99918.22;5055539;28;20521;-48
2023/06/13 01:06:28;;;;;;;2.97;2.67;;;;;;;18.02;63.70;99918.59;5055630;28;20486;-48
2023/06/13 01:09:00;;;;;;;5.43;2.70;;;;;;;17.83;66.06;99928.81;5055400;28;20485;-49
2023/06/13 01:11:33;;;;;;;2.70;2.50;;;;;;;17.75;65.06;99915.84;5055842;28;20447;-48
2023/06/13 01:14:36;;;;;;;1.60;1.50;;;;;;;17.61;66.85;99925.72;5043019;28;20473;-49
2023/06/13 01:17:15;;;;;;;4.70;2.20;;;;;;;17.83;66.33;99922.59;5038998;28;20549;-48
2023/06/13 01:19:44;;;;;;;2.77;2.57;;;;;;;17.68;66.45;99924.38;5055271;28;20473;-48
2023/06/13 01:22:23;;;;;;;4.23;2.53;;;;;;;17.47;66.91;99931.97;5055457;28;20477;-48
2023/06/13 01:24:58;;;;;;;2.60;2.40;;;;;;;17.48;67.01;99915.75;5055266;28;20492;-49
2023/06/13 01:27:25;;;;;;;13.80;2.63;;;;;;;17.18;67.75;99921.22;5055485;28;21018;-49
2023/06/13 01:29:55;;;;;;;2.40;2.20;;;;;;;17.16;67.31;99917.78;5055160;28;20446;-48
2023/06/13 01:32:22;;;;;;;6.67;2.30;;;;;;;17.05;66.66;99920.25;5055250;28;20562;-49
2023/06/13 01:34:49;;;;;;;4.03;2.47;;;;;;;17.11;66.95;99913.63;5055020;28;20898;-50
2023/06/13 01:37:17;;;;;;;2.10;2.00;;;;;;;17.22;65.98;99921.03;5055216;28;20457;-48
2023/06/13 01:39:44;;;;;;;2.40;2.27;;;;;;;17.57;62.88;99914.31;5054880;28;20512;-49
2023/06/13 01:42:11;;;;;;;8.03;2.90;;;;;;;17.79;60.66;99915.66;5054690;28;20482;-49
2023/06/13 01:44:37;;;;;;;2.77;2.50;;;;;;;17.81;59.11;99911.03;5054592;28;21004;-49
2023/06/13 01:47:07;;;;;;;2.90;2.70;;;;;;;17.86;60.91;99914.31;5055097;28;20458;-49
2023/06/13 01:49:36;;;;;;;2.13;1.93;;;;;;;17.93;58.93;99903.03;5041931;28;20538;-49
2023/06/13 01:52:29;;;;;;;3.27;2.97;;;;;;;17.88;60.88;99909.69;5054899;28;20478;-49
2023/06/13 01:55:04;;;;;;;2.60;2.50;;;;;;;17.60;61.81;99908.75;5017065;28;20447;-49
2023/06/13 01:57:37;;;;;;;3.37;3.07;;;;;;;17.38;64.41;99906.53;5054802;28;20507;-49
2023/06/13 02:00:09;;;;;;;2.43;2.33;;;;;;;17.12;66.76;99916.22;5054631;28;20453;-48
2023/06/13 02:02:37;;;;;;;2.37;2.27;;;;;;;17.18;66.70;99912.31;5054563;28;21030;-48
2023/06/13 02:05:04;;;;;;;2.60;2.50;;;;;;;17.01;67.19;99907.97;5054322;28;20490;-48
2023/06/13 02:07:32;;;;;;;2.60;2.40;;;;;;;17.06;66.92;99910.38;5054710;28;20451;-49
2023/06/13 02:10:01;;;;;;;5.10;2.10;;;;;;;17.26;65.67;99901.94;5054608;28;20474;-49
2023/06/13 02:12:28;;;;;;;1.90;1.63;;;;;;;17.04;66.79;99907.78;5054370;28;21031;-49
2023/06/13 02:14:56;;;;;;;2.33;2.23;;;;;;;16.98;67.02;99908.13;5054423;28;20450;-48
2023/06/13 02:17:25;;;;;;;3.50;2.37;;;;;;;16.85;67.48;99902.66;5054406;28;20553;-48
2023/06/13 02:19:51;;;;;;;2.70;2.50;;;;;;;17.00;67.09;99897.34;5054140;28;20993;-49
2023/06/13 02:22:18;;;;;;;3.63;3.30;;;;;;;16.75;67.50;99901.50;5054168;28;20984;-48
2023/06/13 02:24:44;;;;;;;4.40;2.60;;;;;;;16.71;68.33;99899.06;5054230;28;20457;-48
2023/06/13 02:27:11;;;;;;;5.20;3.50;;;;;;;16.64;68.65;99897.69;5054115;28;21031;-48
2023/06/13 02:29:38;;;;;;;3.50;3.23;;;;;;;16.61;68.93;99900.56;5054089;28;20485;-48
2023/06/13 02:32:05;;;;;;;1.40;1.30;;;;;;;16.49;69.53;99908.38;5054055;28;20467;-48
2023/06/13 02:34:32;;;;;;;2.50;2.40;;;;;;;16.41;69.44;99901.72;5053779;28;20546;-49
2023/06/13 02:36:58;;;;;;;3.93;2.53;;;;;;;16.40;69.51;99906.22;5054142;28;20542;-48
2023/06/13 02:39:25;;;;;;;8.03;2.37;;;;;;;16.20;70.73;99910.09;5053810;28;20949;-48
2023/06/13 02:41:51;;;;;;;2.33;2.10;;;;;;;16.23;70.08;99906.38;5053766;28;20558;-49
2023/06/13 02:44:18;;;;;;;2.43;2.33;;;;;;;16.02;70.83;99916.50;5053837;28;20546;-49
2023/06/13 02:46:44;;;;;;;2.73;2.40;;;;;;;16.07;70.75;99910.88;5053666;28;20498;-49
2023/06/13 02:49:11;;;;;;;2.03;1.93;;;;;;;16.13;70.43;99914.06;5053534;28;21023;-48
2023/06/13 02:51:37;;;;;;;4.57;2.10;;;;;;;16.02;70.24;99916.50;5053953;28;20814;-49
2023/06/13 02:54:04;;;;;;;2.50;2.30;;;;;;;16.02;70.27;99902.22;5053552;28;20457;-49
2023/06/13 02:56:36;;;;;;;2.77;2.57;;;;;;;16.08;69.22;99908.13;5052967;28;20447;-48
2023/06/13 02:59:02;;;;;;;12.20;2.97;;;;;;;16.12;70.19;99906.13;5053579;28;20485;-49
2023/06/13 03:01:29;;;;;;;2.60;2.40;;;;;;;16.17;69.51;99907.59;5053395;28;20504;-48
2023/06/13 03:03:56;;;;;;;17.73;2.87;;;;;;;15.97;71.31;99908.72;5053449;28;20475;-48
2023/06/13 03:06:26;;;;;;;5.13;2.83;;;;;;;15.97;70.48;99908.72;5053496;28;20490;-49
2023/06/13 03:08:52;;;;;;;2.33;2.20;;;;;;;15.96;68.23;99901.63;5053364;28;20454;-49
2023/06/13 03:11:19;;;;;;;3.63;2.90;;;;;;;16.06;67.95;99901.13;5053303;28;20447;-48
2023/06/13 03:13:49;;;;;;;3.00;2.40;;;;;;;16.26;66.75;99906.19;5053051;28;20562;-48
2023/06/13 03:16:17;;;;;;;2.40;2.00;;;;;;;16.20;66.88;99902.03;5053094;28;20898;-49
2023/06/13 03:18:44;;;;;;;2.87;2.67;;;;;;;16.22;66.87;99899.28;5053369;28;20450;-48
2023/06/13 03:21:11;;;;;;;2.60;2.00;;;;;;;16.45;66.03;99895.25;5053088;28;20537;-48
2023/06/13 03:23:37;;;;;;;7.53;1.30;;;;;;;16.22;66.56;99904.63;5052793;28;20561;-48
2023/06/13 03:26:06;;;;;;;3.33;2.23;;;;;;;16.32;66.10;99907.66;5052789;28;20496;-48
2023/06/13 03:28:32;;;;;;;1.17;1.07;;;;;;;16.25;66.39;99909.81;5052683;28;20447;-49
2023/06/13 03:31:00;;;;;;;18.53;2.50;;;;;;;16.35;66.08;99913.69;5053081;28;20454;-49
2023/06/13 03:33:27;;;;;;;6.40;3.20;;;;;;;16.13;66.82;99906.03;5052775;28;20481;-48
2023/06/13 03:35:53;;;;;;;2.30;1.77;;;;;;;16.22;66.40;99905.50;5052887;28;20817;-48
2023/06/13 03:38:27;;;;;;;4.07;2.10;;;;;;;16.22;66.13;99910.88;5052760;28;20940;-48
2023/06/13 03:40:54;;;;;;;2.27;1.93;;;;;;;16.22;66.37;99912.69;5052467;28;20450;-48
2023/06/13 03:43:21;;;;;;;3.57;3.27;;;;;;;16.21;66.22;99909.13;5052728;28;20482;-48
2023/06/13 03:45:48;;;;;;;4.70;2.80;;;;;;;16.19;66.36;99904.81;5052379;28;20860;-48
2023/06/13 03:48:14;;;;;;;3.53;2.57;;;;;;;16.18;66.35;99905.78;5052548;28;20447;-48
2023/06/13 03:50:41;;;;;;;2.43;2.27;;;;;;;16.17;66.72;99910.28;5052554;28;20450;-49
2023/06/13 03:53:08;;;;;;;2.30;2.10;;;;;;;16.23;66.40;99909.91;5052422;28;20967;-48
2023/06/13 03:55:34;;;;;;;4.67;1.67;;;;;;;16.22;66.54;99918.91;5052216;28;20538;-49
2023/06/13 03:58:01;;;;;;;1.87;1.77;;;;;;;16.16;66.88;99915.69;5052554;28;20455;-48
2023/06/13 04:00:27;;;;;;;3.30;2.30;;;;;;;16.19;66.89;99912.88;5052396;28;20481;-48
2023/06/13 04:02:55;;;;;;;2.97;2.10;;;;;;;16.20;66.96;99909.22;5052353;28;20540;-48
2023/06/13 04:05:23;;;;;;;2.30;2.07;;;;;;;16.22;66.87;99915.38;5052311;28;20487;-48
2023/06/13 04:07:53;;;;;;;2.80;2.60;;;;;;;16.23;67.05;99925.13;5052269;28;20478;-48
2023/06/13 04:10:20;;;;;;;2.13;2.03;;;;;;;16.29;67.09;99922.94;5051970;28;20455;-48
2023/06/13 04:12:47;;;;;;;5.40;2.10;;;;;;;16.37;66.84;99924.34;5052328;28;20477;-48
2023/06/13 04:15:14;;;;;;;1.27;1.10;;;;;;;16.47;66.41;99939.81;5052065;28;20936;-48
2023/06/13 04:17:40;;;;;;;3.40;1.80;;;;;;;16.54;65.92;99932.25;5034675;28;20936;-49
2023/06/13 04:20:09;;;;;;;2.60;2.20;;;;;;;16.59;65.96;99938.22;5052026;28;20832;-48
2023/06/13 04:22:36;;;;;;;2.60;2.40;;;;;;;16.67;65.71;99929.72;5051992;28;20499;-48
2023/06/13 04:25:03;;;;;;;7.73;1.70;;;;;;;16.73;65.68;99946.38;5052103;28;20451;-48
2023/06/13 04:27:29;;;;;;;3.47;2.43;;;;;;;17.16;64.00;99944.63;5051932;28;20447;-49
2023/06/13 04:29:56;;;;;;;1.93;1.83;;;;;;;17.96;60.92;99945.91;5051750;28;20821;-50
2023/06/13 04:32:28;;;;;;;1.47;1.37;;;;;;;18.57;58.88;99949.06;5051725;28;20881;-48
2023/06/13 04:34:55;;;;;;;2.27;2.07;;;;;;;19.66;54.61;99950.53;5051948;28;20443;-48
2023/06/13 04:37:30;;;;;;;2.87;2.67;;;;;;;20.26;52.67;99961.38;5051815;28;20447;-49
2023/06/13 04:39:58;;;;;;;2.53;2.33;;;;;;;20.06;52.30;99954.75;5040769;28;20492;-49
2023/06/13 04:42:26;;;;;;;3.77;2.40;;;;;;;20.62;50.65;99956.94;5051729;28;20479;-48
2023/06/13 04:44:58;;;;;;;2.77;2.50;;;;;;;20.92;49.93;99962.72;5051698;28;20928;-49
2023/06/13 04:47:32;;;;;;;2.10;1.73;;;;;;;20.91;49.23;99960.13;5051732;28;20486;-49
2023/06/13 04:50:21;;;;;;;5.27;2.10;;;;;;;21.05;49.77;99965.34;5052060;28;20481;-49
2023/06/13 04:52:53;;;;;;;1.73;1.63;;;;;;;21.21;48.72;99968.56;5051615;28;21043;-49
2023/06/13 04:55:23;;;;;;;1.83;1.73;;;;;;;20.84;49.37;99973.25;5051735;28;20447;-49
2023/06/13 04:57:50;;;;;;;1.53;1.43;;;;;;;21.45;48.93;99970.38;5051707;28;20522;-49
2023/06/13 05:00:18;;;;;;;4.80;2.03;;;;;;;21.25;48.72;99980.94;5051740;28;20446;-49
2023/06/13 05:02:45;;;;;;;2.43;2.23;;;;;;;21.34;48.78;99975.75;5051888;28;20471;-49
2023/06/13 05:05:14;;;;;;;16.27;1.93;;;;;;;21.36;49.58;99981.91;5051873;28;20450;-49
2023/06/13 05:07:40;;;;;;;1.50;1.40;;;;;;;21.49;48.57;99986.22;5051735;28;20525;-49
2023/06/13 05:10:08;;;;;;;1.87;1.73;;;;;;;21.63;48.02;99990.56;5051690;28;20481;-49
2023/06/13 05:12:38;;;;;;;1.40;1.30;;;;;;;21.56;48.25;99990.19;5051569;28;20518;-49
2023/06/13 05:15:05;;;;;;;2.33;2.13;;;;;;;22.13;47.04;99989.25;5051832;28;20442;-49
2023/06/13 05:17:34;;;;;;;1.33;1.23;;;;;;;22.21;46.21;99988.63;5051757;28;20446;-49
2023/06/13 05:20:00;;;;;;;2.67;2.47;;;;;;;22.16;47.04;99985.41;5036538;28;20454;-49
2023/06/13 05:22:28;;;;;;;3.00;1.63;;;;;;;22.10;47.02;99988.63;5055421;28;20474;-49
2023/06/13 05:24:54;;;;;;;2.83;2.10;;;;;;;21.81;47.16;99996.38;5055227;28;20958;-49
2023/06/13 05:27:21;;;;;;;1.47;1.37;;;;;;;21.87;47.41;99995.88;5055091;28;20491;-48
2023/06/13 05:29:47;;;;;;;3.67;1.87;;;;;;;22.21;46.76;99987.78;5055383;28;20451;-49
2023/06/13 05:32:14;;;;;;;1.47;1.37;;;;;;;22.17;46.91;99997.97;5055220;28;20471;-50
2023/06/13 05:34:41;;;;;;;2.23;1.53;;;;;;;22.33;46.60;100001.13;5055033;28;20451;-49
2023/06/13 05:37:10;;;;;;;43.43;2.17;;;;;;;22.40;46.05;99993.38;5055650;28;20446;-49
2023/06/13 05:39:38;;;;;;;1.90;1.80;;;;;;;23.25;44.96;99994.31;5054847;28;20530;-49
2023/06/13 05:42:05;;;;;;;3.27;2.10;;;;;;;22.70;46.47;99998.97;5054556;28;20620;-49
2023/06/13 05:44:31;;;;;;;1.87;1.30;;;;;;;22.58;46.28;99994.56;5054997;28;20442;-49
2023/06/13 05:46:58;;;;;;;2.40;2.30;;;;;;;22.71;45.14;99989.84;5055043;28;21065;-50
2023/06/13 05:49:25;;;;;;;5.23;2.73;;;;;;;22.50;46.16;99994.34;5054890;28;20970;-49
2023/06/13 05:51:53;;;;;;;1.30;1.20;;;;;;;22.92;45.20;99995.34;5054658;28;20954;-49
2023/06/13 05:54:19;;;;;;;6.13;1.87;;;;;;;21.84;47.44;99996.13;5054476;28;20453;-49
2023/06/13 05:56:46;;;;;;;2.10;2.00;;;;;;;21.76;47.82;99995.84;5054878;28;20451;-50
2023/06/13 05:59:14;;;;;;;1.73;1.63;;;;;;;22.04;47.49;100000.78;5054605;28;20497;-49
2023/06/13 06:01:45;;;;;;;2.23;2.13;;;;;;;22.17;46.62;99998.81;5054446;28;20500;-48
2023/06/13 06:04:12;;;;;;;1.43;1.33;;;;;;;22.05;46.77;99998.91;5054588;28;20895;-49
2023/06/13 06:06:39;;;;;;;3.10;2.50;;;;;;;22.00;47.47;100004.72;5054366;28;20486;-49
2023/06/13 06:09:05;;;;;;;2.30;1.60;;;;;;;21.64;47.80;100004.94;5054432;28;20478;-49
2023/06/13 06:11:33;;;;;;;1.33;1.23;;;;;;;22.09;47.64;99998.59;5054551;28;20542;-49
2023/06/13 06:14:00;;;;;;;2.43;2.27;;;;;;;21.99;47.40;99994.03;5054341;28;20466;-48
2023/06/13 06:16:26;;;;;;;8.70;3.50;;;;;;;22.38;47.03;99998.06;5054312;28;20489;-49
2023/06/13 06:18:53;;;;;;;9.73;2.87;;;;;;;22.68;46.03;100000.94;5054425;28;20477;-49
2023/06/13 06:21:20;;;;;;;1.77;1.67;;;;;;;22.44;46.10;100001.13;5054109;28;20863;-49
2023/06/13 06:23:47;;;;;;;3.00;1.83;;;;;;;22.25;46.15;99992.78;5054053;28;20988;-49
2023/06/13 06:26:14;;;;;;;2.00;1.90;;;;;;;22.55;45.98;100002.94;5054110;28;20569;-49
2023/06/13 06:28:40;;;;;;;1.87;1.77;;;;;;;22.28;46.72;99997.09;5054213;28;20481;-49
2023/06/13 06:31:07;;;;;;;1.87;1.77;;;;;;;22.69;46.02;100001.78;5053053;28;20483;-48
2023/06/13 06:33:33;;;;;;;5.70;2.10;;;;;;;22.44;45.61;100002.97;5054028;28;20477;-49
2023/06/13 06:36:00;;;;;;;2.77;2.57;;;;;;;22.47;45.98;99992.72;5053783;28;20471;-49
2023/06/13 06:38:27;;;;;;;2.17;1.70;;;;;;;22.75;45.05;99996.75;5053921;28;20493;-49
2023/06/13 06:40:54;;;;;;;2.60;2.50;;;;;;;22.58;45.63;99999.13;5053858;28;20478;-49
2023/06/13 06:43:20;;;;;;;6.40;2.30;;;;;;;23.34;44.18;100003.50;5067575;23;20582;-50
2023/06/13 06:45:47;;;;;;;2.63;1.90;;;;;;;23.35;43.96;100005.22;5053722;28;20450;-50
2023/06/13 06:48:13;;;;;;;1.97;1.87;;;;;;;23.75;42.87;99993.66;5053749;28;20493;-51
2023/06/13 06:50:40;;;;;;;2.20;2.00;;;;;;;23.08;43.35;100004.88;5053420;28;20455;-50
2023/06/13 06:53:07;;;;;;;1.70;1.60;;;;;;;22.62;44.98;100004.19;5046534;28;20499;-50
2023/06/13 06:55:33;;;;;;;1.97;1.87;;;;;;;22.74;44.63;100005.84;5033789;28;20452;-50
2023/06/13 06:58:01;;;;;;;2.90;1.53;;;;;;;22.78;44.30;100006.47;5033614;28;20936;-50
2023/06/13 07:00:27;;;;;;;3.20;2.07;;;;;;;23.38;43.19;100010.38;5033414;28;20452;-51
2023/06/13 07:02:54;;;;;;;1.90;1.80;;;;;;;23.12;43.42;100004.47;5033423;28;21058;-50
2023/06/13 07:05:21;;;;;;;1.83;1.50;;;;;;;22.69;43.71;100015.34;5033341;28;20458;-50
2023/06/13 07:07:48;;;;;;;2.30;2.10;;;;;;;22.81;45.04;100011.63;5033699;28;20541;-50
2023/06/13 07:10:14;;;;;;;1.90;1.80;;;;;;;22.63;43.76;100008.59;5033350;28;21006;-50
2023/06/13 07:12:42;;;;;;;1.83;1.73;;;;;;;22.24;44.53;100007.31;5033388;28;20475;-50
2023/06/13 07:15:08;;;;;;;1.53;1.43;;;;;;;22.91;44.59;100003.63;5033166;28;20509;-50
2023/06/13 07:17:35;;;;;;;1.50;1.40;;;;;;;23.15;43.18;100009.63;5033091;28;20523;-50
2023/06/13 07:20:05;;;;;;;4.83;2.40;;;;;;;23.29;43.83;100005.75;5033307;28;20455;-51
2023/06/13 07:22:31;;;;;;;2.57;2.47;;;;;;;23.48;43.15;100010.47;5033173;28;20999;-50
2023/06/13 07:24:58;;;;;;;1.63;1.53;;;;;;;23.37;43.62;100007.81;5033125;28;20474;-51
2023/06/13 07:27:24;;;;;;;14.27;2.57;;;;;;;23.74;42.72;100005.50;5033146;28;20502;-50
2023/06/13 07:29:51;;;;;;;3.43;1.87;;;;;;;23.99;42.05;100001.50;5033096;28;20498;-50
2023/06/13 07:32:17;;;;;;;7.83;1.83;;;;;;;24.10;42.31;100009.50;5032821;28;20451;-51
2023/06/13 07:34:44;;;;;;;2.43;2.03;;;;;;;23.90;42.16;100006.72;5033060;28;20447;-50
2023/06/13 07:37:30;;;;;;;1.90;1.80;;;;;;;23.37;43.63;100011.38;5032939;28;20948;-53
2023/06/13 07:39:57;;;;;;;2.30;2.10;;;;;;;23.32;43.46;100016.34;5021390;28;20885;-51
2023/06/13 07:42:23;;;;;;;1.63;1.47;;;;;;;23.56;43.41;100008.78;5032356;28;20455;-50
2023/06/13 07:44:50;;;;;;;2.50;2.30;;;;;;;23.31;42.34;100009.22;5032958;28;20456;-50
2023/06/13 07:47:16;;;;;;;1.70;1.60;;;;;;;23.58;43.17;100006.84;5032638;28;20549;-51
2023/06/13 07:49:43;;;;;;;1.93;1.83;;;;;;;23.72;42.04;99992.06;5032858;28;20533;-51
2023/06/13 07:52:09;;;;;;;3.30;2.37;;;;;;;23.82;42.21;99987.53;5032599;28;20452;-50
2023/06/13 07:54:36;;;;;;;2.13;2.03;;;;;;;23.49;43.40;99988.63;5032671;28;20471;-50
2023/06/13 07:57:03;;;;;;;1.90;1.63;;;;;;;23.90;43.16;99979.56;5032558;28;20444;-50
2023/06/13 07:59:50;;;;;;;1.73;1.47;;;;;;;24.67;41.74;99973.53;5032855;28;20475;-50
2023/06/13 08:02:17;;;;;;;2.00;1.90;;;;;;;24.12;41.30;99983.97;5032520;28;20470;-52
2023/06/13 08:04:44;;;;;;;34.73;2.50;;;;;;;23.80;41.30;99988.66;5032548;28;20451;-50
2023/06/13 08:07:20;;;;;;;5.47;2.10;;;;;;;24.27;41.29;99973.56;5032414;28;20862;-50
2023/06/13 08:09:47;;;;;;;2.60;1.70;;;;;;;24.64;40.27;99986.53;5032316;28;20456;-51
2023/06/13 08:12:14;;;;;;;14.20;1.80;;;;;;;24.48;40.71;99979.78;5032495;28;20451;-50
2023/06/13 08:14:40;;;;;;;6.70;1.57;;;;;;;24.62;39.99;99980.38;5032694;28;20462;-52
2023/06/13 08:17:07;;;;;;;6.40;2.73;;;;;;;24.61;40.39;99974.06;5032315;28;20941;-52
2023/06/13 08:19:34;;;;;;;2.03;1.80;;;;;;;24.34;40.39;99974.75;5032419;28;20475;-52
2023/06/13 08:22:01;;;;;;;15.30;2.90;;;;;;;24.37;39.73;99966.31;5032336;28;20455;-52
2023/06/13 08:24:27;;;;;;;3.23;2.33;;;;;;;24.15;39.42;99980.97;5031801;28;20558;-52
2023/06/13 08:26:54;;;;;;;2.20;2.10;;;;;;;24.62;39.59;99966.78;5032302;28;20491;-52
2023/06/13 08:29:23;;;;;;;2.60;1.70;;;;;;;24.63;37.53;99973.94;5032158;28;20500;-52
2023/06/13 08:31:50;;;;;;;1.60;1.47;;;;;;;24.34;38.25;99968.44;5032173;28;20455;-52
2023/06/13 08:34:16;;;;;;;2.30;2.20;;;;;;;24.38;38.71;99973.44;5031816;28;20476;-52
2023/06/13 08:36:43;;;;;;;4.40;1.70;;;;;;;23.96;38.64;99971.88;5032434;28;20505;-52
2023/06/13 08:39:10;;;;;;;1.80;1.70;;;;;;;24.04;38.64;99970.19;5031840;28;21019;-52
2023/06/13 08:41:37;;;;;;;4.60;2.13;;;;;;;23.93;38.09;99973.00;5032323;28;20547;-52
2023/06/13 08:44:05;;;;;;;1.57;1.47;;;;;;;24.21;38.46;99965.94;5031331;28;20482;-52
2023/06/13 08:46:33;;;;;;;1.70;1.53;;;;;;;23.92;38.36;99969.44;5031111;28;20569;-52
2023/06/13 08:49:00;;;;;;;4.93;1.20;;;;;;;23.96;38.50;99969.16;5031185;28;20452;-52
2023/06/13 08:51:30;;;;;;;11.30;2.50;;;;;;;23.41;37.69;99958.56;5030982;28;20450;-52
2023/06/13 08:54:02;;;;;;;5.10;2.80;;;;;;;23.84;37.69;99947.53;5032157;28;20482;-52
2023/06/13 08:56:34;;;;;;;3.80;1.47;;;;;;;24.02;37.88;99953.19;5035260;28;20806;-52
2023/06/13 08:59:08;;;;;;;4.83;2.10;;;;;;;23.86;38.28;99961.84;5034769;28;20513;-52
2023/06/13 09:01:40;;;;;;;1.70;1.60;;;;;;;23.91;37.98;99958.72;5034862;28;20882;-52
2023/06/13 09:04:09;;;;;;;2.67;2.47;;;;;;;23.73;37.88;99960.34;5032510;28;20913;-52
2023/06/13 09:06:37;;;;;;;1.93;1.83;;;;;;;23.70;38.98;99966.88;5027325;28;20495;-52
2023/06/13 09:09:07;;;;;;;1.40;1.30;;;;;;;23.85;38.85;99952.00;5034220;28;20448;-52
2023/06/13 09:11:35;;;;;;;1.80;1.70;;;;;;;24.00;39.57;99952.47;5034508;28;20439;-52
2023/06/13 09:14:04;;;;;;;1.70;1.60;;;;;;;24.26;38.94;99941.97;5034595;28;20493;-52
2023/06/13 09:16:31;;;;;;;3.30;2.23;;;;;;;24.47;39.63;99936.44;5034401;28;20536;-52
2023/06/13 09:18:59;;;;;;;1.40;1.20;;;;;;;24.85;37.85;99945.63;5034980;28;20506;-52
2023/06/13 09:21:26;;;;;;;1.57;1.47;;;;;;;24.28;36.66;99947.25;5034421;28;20490;-52
2023/06/13 09:23:59;;;;;;;1.70;1.60;;;;;;;24.53;37.19;99946.72;5034097;28;20474;-52
2023/06/13 09:26:26;;;;;;;1.50;1.40;;;;;;;24.74;37.40;99947.47;5034463;28;20447;-52
2023/06/13 09:28:52;;;;;;;1.77;1.67;;;;;;;24.14;35.75;99938.50;5034129;28;20475;-52
2023/06/13 09:31:20;;;;;;;2.20;2.10;;;;;;;24.33;36.42;99945.84;5034232;28;20455;-52
2023/06/13 09:33:47;;;;;;;1.33;1.23;;;;;;;24.46;36.54;99941.00;5034222;28;20503;-52
2023/06/13 09:36:13;;;;;;;1.40;1.30;;;;;;;24.75;35.96;99943.75;5034158;28;20467;-52
2023/06/13 09:38:41;;;;;;;1.63;1.53;;;;;;;24.34;35.87;99933.97;5034153;28;20443;-52
2023/06/13 09:41:12;;;;;;;1.70;1.60;;;;;;;24.59;36.54;99929.88;5034253;28;20447;-52
2023/06/13 09:43:40;;;;;;;1.60;1.50;;;;;;;24.89;36.16;99937.00;4996828;28;1079624;-52
2023/06/13 09:46:10;;;;;;;1.60;1.50;;;;;;;24.66;35.57;99935.56;5035413;28;20217;-52
2023/06/13 09:48:37;;;;;;;1.83;1.73;;;;;;;24.43;36.59;99933.16;5035113;28;20498;-51
2023/06/13 09:51:13;;;;;;;2.90;2.10;;;;;;;24.41;36.88;99918.84;5035369;28;20534;-52
2023/06/13 09:53:39;;;;;;;1.20;1.10;;;;;;;24.70;36.48;99928.88;5017439;28;20495;-52
2023/06/13 09:56:10;;;;;;;3.57;1.03;;;;;;;24.77;34.09;99924.56;5034799;28;20479;-52
2023/06/13 09:58:37;;;;;;;4.47;1.90;;;;;;;25.00;33.58;99916.97;5035047;28;20444;-52
2023/06/13 10:01:04;;;;;;;3.30;2.27;;;;;;;24.81;34.51;99929.59;5034861;28;20796;-52
2023/06/13 10:03:31;;;;;;;2.07;1.97;;;;;;;24.77;34.79;99922.72;5034630;28;20467;-52
2023/06/13 10:06:02;;;;;;;1.57;1.47;;;;;;;25.02;34.69;99921.28;5034829;28;20447;-52
2023/06/13 10:08:31;;;;;;;2.93;1.80;;;;;;;25.24;34.04;99919.25;5034770;28;20545;-52
2023/06/13 10:11:02;;;;;;;4.00;2.30;;;;;;;24.86;35.00;99922.84;5034625;28;20494;-52
2023/06/13 10:13:34;;;;;;;1.80;1.70;;;;;;;24.57;35.23;99923.72;5034605;28;20999;-52
2023/06/13 10:16:04;;;;;;;1.27;1.17;;;;;;;24.86;35.17;99911.97;5034760;28;20498;-52
2023/06/13 10:18:41;;;;;;;3.10;2.17;;;;;;;24.60;35.69;99915.28;5034317;28;20455;-52
2023/06/13 10:21:10;;;;;;;3.80;2.10;;;;;;;25.24;34.71;99898.34;5034221;28;20447;-52
2023/06/13 10:23:42;;;;;;;2.50;2.30;;;;;;;25.27;34.26;99916.25;5034542;28;20482;-52
2023/06/13 10:26:11;;;;;;;1.60;1.50;;;;;;;25.21;34.88;99909.50;5034433;28;20483;-52
2023/06/13 10:28:56;;;;;;;5.23;1.80;;;;;;;24.88;35.31;99909.97;5034389;28;20553;-52
2023/06/13 10:31:40;;;;;;;1.90;1.80;;;;;;;25.05;35.73;99910.13;5034235;28;20475;-52
2023/06/13 10:34:34;;;;;;;4.70;1.57;;;;;;;25.44;35.65;99907.31;5034179;28;20467;-52
2023/06/13 10:37:22;;;;;;;2.80;1.57;;;;;;;25.51;35.43;99904.84;5034026;28;20489;-52
2023/06/13 10:40:18;;;;;;;1.77;1.67;;;;;;;25.51;35.47;99907.59;5033753;28;20813;-52
2023/06/13 10:42:52;;;;;;;3.13;1.80;;;;;;;25.59;34.81;99897.63;5033742;28;21135;-52
2023/06/13 10:45:24;;;;;;;1.57;1.47;;;;;;;26.41;33.54;99890.50;5016402;28;20447;-53
2023/06/13 10:47:51;;;;;;;1.97;1.87;;;;;;;25.86;35.33;99891.38;5033434;28;20491;-50
2023/06/13 10:50:18;;;;;;;1.73;1.63;;;;;;;26.40;34.41;99886.06;5033704;28;20452;-50
2023/06/13 10:52:48;;;;;;;1.33;1.07;;;;;;;26.43;34.47;99883.00;5033728;28;20476;-51
2023/06/13 10:55:26;;;;;;;7.50;1.40;;;;;;;26.20;34.88;99877.16;5033803;28;20634;-51
2023/06/13 10:57:56;;;;;;;1.57;1.47;;;;;;;25.70;35.46;99880.28;5033592;28;20447;-51
2023/06/13 11:00:34;;;;;;;5.30;2.30;;;;;;;26.27;35.24;99875.50;5033460;28;20987;-51
2023/06/13 11:03:06;;;;;;;1.83;1.73;;;;;;;26.34;34.42;99881.22;5033306;28;20976;-51
2023/06/13 11:05:46;;;;;;;2.10;2.00;;;;;;;26.06;34.42;99870.34;5033497;28;20471;-51
2023/06/13 11:08:20;;;;;;;2.17;1.67;;;;;;;25.90;34.65;99864.69;5033421;28;20492;-51
2023/06/13 11:10:48;;;;;;;2.40;1.67;;;;;;;25.93;34.41;99869.84;5033233;28;20448;-51
2023/06/13 11:13:20;;;;;;;3.13;2.47;;;;;;;25.68;33.61;99863.22;5033179;28;20471;-51
2023/06/13 11:15:48;;;;;;;2.53;1.50;;;;;;;25.85;33.46;99858.84;5033482;28;20904;-51
2023/06/13 11:18:14;;;;;;;1.60;1.50;;;;;;;25.60;33.85;99855.78;5032817;28;20968;-52
2023/06/13 11:20:55;;;;;;;1.70;1.60;;;;;;;26.17;34.31;99858.34;5033292;28;20482;-52
2023/06/13 11:23:23;;;;;;;2.27;2.17;;;;;;;25.97;32.91;99861.22;5032982;28;20882;-52
2023/06/13 11:25:51;;;;;;;2.00;1.90;;;;;;;25.84;31.64;99859.88;5015341;28;20455;-52
2023/06/13 11:28:18;;;;;;;1.77;1.50;;;;;;;25.97;31.30;99846.75;5033182;28;20487;-52
2023/06/13 11:30:47;;;;;;;2.50;1.83;;;;;;;26.42;31.31;99859.50;5033499;28;20467;-52
2023/06/13 11:33:16;;;;;;;23.83;2.00;;;;;;;26.07;31.51;99872.06;5032834;28;20475;-52
2023/06/13 11:35:50;;;;;;;1.20;0.93;;;;;;;25.97;31.98;99855.78;5032998;28;20458;-52
2023/06/13 11:38:42;;;;;;;8.40;1.67;;;;;;;25.80;32.81;99847.56;5032902;28;20483;-52